Virgie Cenac — WDC2765 — position and weather

sailwx.info

Track history (hours):
 
Tides and Currents Weather Stations Pressure Air Temp Water Temp Dewpoint Dewpoint Depression Visibility Wind Speed Wind Dir Waves Ship Positions

Virgie Cenac

More information available from US FCC via Universal Licensing System and Coast Guard Vessel Documentation Center.

Last reported at 2014-Jul-06 10:31 UTC. Time now 2014-Jul-23 03:17 UTC.
Position N 29°49' W 090°04'.
Warning: this ship's position is 16 days out of date.

Length 18 m; draft 3 m.

Type: Towing. MMSI: 366997430.

Date/timePositionNaut miles runAvg speedWind from/ knotsBaromVisibWave heightAir tempDewpointWater temp
2014-Jul-06 10:31N 29°49' W 090°04'25 4.2
2014-Jul-06 04:33N 29°33' W 090°26'5 5.3
2014-Jul-06 03:33N 29°34' W 090°32'7 4.8
2014-Jul-06 02:08N 29°36' W 090°40'4 0.1
2014-Jul-05 01:27N 29°33' W 090°42'4 2.7
2014-Jul-05 00:05N 29°36' W 090°39'3 6.5
2014-Jul-04 23:33N 29°35' W 090°35'7 0.7
2014-Jul-04 13:33N 29°33' W 090°27'8 8.0
2014-Jul-04 12:32N 29°35' W 090°37'  
2014-Jun-30 22:33N 29°35' W 090°37'4 3.8
2014-Jun-30 21:33N 29°37' W 090°33'2 2.2
2014-Jun-30 20:34N 29°39' W 090°32'0 0.0
2014-Jun-30 19:33N 29°39' W 090°32'1 1.3
2014-Jun-30 18:34N 29°38' W 090°34'4 4.3
2014-Jun-30 17:33N 29°35' W 090°37'0 0.0
2014-Jun-30 00:10N 29°35' W 090°36'1 0.8
2014-Jun-29 23:31N 29°35' W 090°36'  
Track history (hours):
 
Tides and Currents Weather Stations Pressure Air Temp Water Temp Dewpoint Dewpoint Depression Visibility Wind Speed Wind Dir Waves Ship Positions

Virgie Cenac

More information available from US FCC via Universal Licensing System and Coast Guard Vessel Documentation Center.

Last reported at 2014-Jul-06 10:31 UTC. Time now 2014-Jul-23 03:17 UTC.
Position N 29°49' W 090°04'.
Warning: this ship's position is 16 days out of date.

Length 18 m; draft 3 m.

Type: Towing. MMSI: 366997430.

Date/timePositionNaut miles runAvg speedWind from/ knotsBaromVisibWave heightAir tempDewpointWater temp
2014-Jul-06 10:31N 29°49' W 090°04'25 4.2
2014-Jul-06 04:33N 29°33' W 090°26'5 5.3
2014-Jul-06 03:33N 29°34' W 090°32'7 4.8
2014-Jul-06 02:08N 29°36' W 090°40'4 0.1
2014-Jul-05 01:27N 29°33' W 090°42'4 2.7
2014-Jul-05 00:05N 29°36' W 090°39'3 6.5
2014-Jul-04 23:33N 29°35' W 090°35'7 0.7
2014-Jul-04 13:33N 29°33' W 090°27'8 8.0
2014-Jul-04 12:32N 29°35' W 090°37'  
2014-Jun-30 22:33N 29°35' W 090°37'4 3.8
2014-Jun-30 21:33N 29°37' W 090°33'2 2.2
2014-Jun-30 20:34N 29°39' W 090°32'0 0.0
2014-Jun-30 19:33N 29°39' W 090°32'1 1.3
2014-Jun-30 18:34N 29°38' W 090°34'4 4.3
2014-Jun-30 17:33N 29°35' W 090°37'0 0.0
2014-Jun-30 00:10N 29°35' W 090°36'1 0.8
2014-Jun-29 23:31N 29°35' W 090°36'  

Dump ship's entire track history